createdAt,value
2023-01-19T00:02:12.970Z,7.55
2023-01-19T00:05:17.961Z,6.78
2023-01-19T00:08:21.760Z,9.35
2023-01-19T00:11:26.153Z,7.40
2023-01-19T00:14:29.870Z,8.32
2023-01-19T00:17:34.760Z,6.63
2023-01-19T00:20:38.561Z,5.32
2023-01-19T00:23:44.749Z,7.30
2023-01-19T00:26:48.665Z,6.35
2023-01-19T00:29:53.109Z,6.63
2023-01-19T00:32:57.327Z,7.40
2023-01-19T00:36:01.522Z,6.95
2023-01-19T00:39:05.332Z,8.40
2023-01-19T00:42:31.384Z,8.07
2023-01-19T00:45:35.350Z,7.90
2023-01-19T00:48:40.300Z,8.73
2023-01-19T00:51:44.399Z,10.07
2023-01-19T00:54:48.630Z,6.85
2023-01-19T00:57:52.504Z,6.88
2023-01-19T01:00:58.688Z,10.35
2023-01-19T01:04:02.511Z,7.55
2023-01-19T01:07:07.064Z,8.40
2023-01-19T01:10:13.517Z,22.57
2023-01-19T01:13:23.768Z,19.50
2023-01-19T01:16:30.080Z,62.70
2023-01-19T01:19:34.389Z,55.88
2023-01-19T01:22:39.870Z,34.92
2023-01-19T01:25:44.464Z,38.40
2023-01-19T01:28:48.256Z,19.27
2023-01-19T01:31:52.626Z,21.67
2023-01-19T01:34:56.385Z,9.15
2023-01-19T01:38:01.682Z,11.43
2023-01-19T01:41:05.709Z,8.00
2023-01-19T01:44:50.863Z,4.47
2023-01-19T01:47:59.614Z,8.15
2023-01-19T01:51:25.832Z,9.32
2023-01-19T01:54:34.021Z,6.07
2023-01-19T01:57:43.081Z,6.97
2023-01-19T02:01:05.404Z,9.43
2023-01-19T02:04:09.996Z,6.95
2023-01-19T02:07:44.811Z,6.90
2023-01-19T02:11:08.216Z,7.03
2023-01-19T02:14:12.241Z,7.05
2023-01-19T02:17:16.680Z,5.45
2023-01-19T02:20:43.801Z,9.10
2023-01-19T02:23:51.465Z,7.82
2023-01-19T02:26:56.851Z,11.93
2023-01-19T02:30:04.543Z,14.43
2023-01-19T02:33:08.616Z,7.68
2023-01-19T02:36:15.138Z,10.35
2023-01-19T02:39:22.654Z,7.60
2023-01-19T02:42:39.058Z,9.35
2023-01-19T02:45:44.047Z,5.75
2023-01-19T02:48:48.110Z,28.88
2023-01-19T02:51:52.323Z,79.40
2023-01-19T02:55:14.299Z,79.45
2023-01-19T02:58:50.056Z,41.97
2023-01-19T03:02:35.502Z,15.37
2023-01-19T03:05:55.574Z,10.93
2023-01-19T03:09:33.350Z,6.63
2023-01-19T03:12:50.021Z,8.23
2023-01-19T03:16:00.271Z,6.40
2023-01-19T03:19:10.791Z,7.05
2023-01-19T03:22:20.417Z,9.00
2023-01-19T03:25:26.249Z,11.32
2023-01-19T03:28:31.859Z,7.60
2023-01-19T03:31:39.165Z,7.22
2023-01-19T03:37:51.864Z,6.50
2023-01-19T03:41:03.620Z,6.30
2023-01-19T03:44:09.722Z,5.28
2023-01-19T03:47:15.931Z,4.95
2023-01-19T03:50:27.899Z,6.57
2023-01-19T03:53:32.433Z,6.07
2023-01-19T03:56:36.788Z,5.50
2023-01-19T03:59:40.684Z,5.63
2023-01-19T04:02:44.950Z,6.53
2023-01-19T04:05:48.879Z,9.25
2023-01-19T04:08:53.398Z,14.10
2023-01-19T04:11:58.125Z,20.60
2023-01-19T04:15:02.184Z,23.60
2023-01-19T04:18:08.193Z,24.52
2023-01-19T04:24:15.878Z,38.92
2023-01-19T04:27:20.745Z,25.15
2023-01-19T04:30:25.173Z,32.97
2023-01-19T04:33:29.562Z,25.15
2023-01-19T04:36:33.530Z,7.90
2023-01-19T04:39:37.723Z,11.93
2023-01-19T04:42:46.059Z,10.15
2023-01-19T04:45:50.776Z,6.10
2023-01-19T04:48:54.869Z,8.20
2023-01-19T04:51:59.518Z,7.82
2023-01-19T04:55:04.859Z,7.28
2023-01-19T04:58:09.554Z,7.22
2023-01-19T05:01:13.583Z,8.30
2023-01-19T05:04:18.031Z,16.42
2023-01-19T05:07:22.630Z,39.50
2023-01-19T05:10:27.117Z,33.83
2023-01-19T05:13:31.162Z,13.40
2023-01-19T05:16:35.425Z,48.40
2023-01-19T05:19:39.841Z,15.00
2023-01-19T05:22:44.230Z,16.73
2023-01-19T05:25:48.145Z,12.30
2023-01-19T05:28:52.171Z,13.50
2023-01-19T05:31:56.139Z,13.10
2023-01-19T05:35:00.380Z,7.97
2023-01-19T05:38:04.682Z,8.30
2023-01-19T05:41:08.768Z,13.30
2023-01-19T05:44:13.778Z,10.13
2023-01-19T05:47:19.086Z,10.30
2023-01-19T05:50:22.983Z,17.13
2023-01-19T05:53:27.801Z,12.68
2023-01-19T05:56:31.990Z,8.55
2023-01-19T05:59:36.456Z,13.90
2023-01-19T06:02:40.688Z,11.70
2023-01-19T06:05:44.778Z,12.47
2023-01-19T06:08:48.797Z,18.95
2023-01-19T06:11:54.895Z,7.53
2023-01-19T06:14:58.807Z,8.63
2023-01-19T06:18:03.160Z,23.02
2023-01-19T06:21:09.343Z,8.10
2023-01-19T06:24:14.522Z,61.60
2023-01-19T06:27:18.606Z,7.25
2023-01-19T06:30:23.075Z,8.45
2023-01-19T06:33:29.325Z,7.90
2023-01-19T06:36:33.349Z,9.02
2023-01-19T06:39:41.971Z,13.75
2023-01-19T06:42:46.228Z,7.50
2023-01-19T06:45:51.180Z,11.98
2023-01-19T06:48:55.575Z,9.50
2023-01-19T06:51:59.523Z,7.22
2023-01-19T06:55:03.651Z,6.70
2023-01-19T06:58:08.129Z,7.95
2023-01-19T07:01:13.378Z,7.35
2023-01-19T07:04:17.383Z,9.67
2023-01-19T07:07:21.791Z,12.15
2023-01-19T07:10:26.213Z,12.65
2023-01-19T07:13:52.383Z,10.35
2023-01-19T07:16:56.328Z,14.32
2023-01-19T07:20:00.337Z,16.38
2023-01-19T07:23:05.564Z,12.00
2023-01-19T07:26:11.461Z,10.48
2023-01-19T07:32:19.322Z,19.40
2023-01-19T07:35:23.258Z,12.50
2023-01-19T07:38:27.354Z,9.13
2023-01-19T07:41:31.317Z,8.57
2023-01-19T07:44:35.582Z,13.20
2023-01-19T07:47:39.512Z,13.40
2023-01-19T07:50:43.714Z,17.30
2023-01-19T07:53:48.058Z,19.92
2023-01-19T07:56:55.937Z,28.13
2023-01-19T07:59:59.906Z,25.48
2023-01-19T08:03:06.220Z,32.42
2023-01-19T08:06:23.390Z,25.35
2023-01-19T08:09:27.617Z,32.85
2023-01-19T08:12:31.560Z,26.98
2023-01-19T08:15:35.764Z,30.42
2023-01-19T08:18:39.772Z,31.73
2023-01-19T08:21:43.898Z,36.22
2023-01-19T08:24:50.289Z,56.90
2023-01-19T08:27:57.767Z,34.70
2023-01-19T08:31:11.150Z,79.97
2023-01-19T08:34:23.030Z,126.45
2023-01-19T08:37:27.004Z,107.07
2023-01-19T08:40:36.205Z,105.13
2023-01-19T08:43:41.760Z,109.30
2023-01-19T08:46:46.046Z,87.15
2023-01-19T08:49:50.058Z,102.68
2023-01-19T08:52:56.687Z,170.57
2023-01-19T08:56:03.470Z,159.48
2023-01-19T08:59:10.825Z,164.15
2023-01-19T09:02:15.957Z,123.50
2023-01-19T09:05:20.509Z,85.35
2023-01-19T09:08:24.429Z,56.53
2023-01-19T09:11:28.609Z,60.35
2023-01-19T09:14:32.644Z,51.60
2023-01-19T09:17:39.495Z,49.63
2023-01-19T09:20:47.737Z,61.67
2023-01-19T09:23:52.024Z,56.25
2023-01-19T09:26:56.299Z,39.15
2023-01-19T09:30:00.414Z,50.28
2023-01-19T09:33:11.707Z,33.00
2023-01-19T09:36:16.189Z,38.13
2023-01-19T09:39:20.233Z,45.83
2023-01-19T09:43:12.955Z,48.13
2023-01-19T09:46:23.761Z,54.55
2023-01-19T09:49:35.653Z,53.70
2023-01-19T09:52:45.049Z,57.45
2023-01-19T09:55:50.633Z,70.22
2023-01-19T09:58:58.252Z,57.22
2023-01-19T10:02:18.831Z,53.25
2023-01-19T10:05:32.735Z,57.00
2023-01-19T10:08:47.967Z,45.63
2023-01-19T10:12:04.505Z,32.10
2023-01-19T10:15:36.125Z,38.03
2023-01-19T10:18:50.083Z,41.53
2023-01-19T10:21:56.268Z,38.50
2023-01-19T10:25:08.076Z,54.22
2023-01-19T10:28:14.597Z,84.65
2023-01-19T10:31:23.738Z,65.97
2023-01-19T10:34:29.056Z,56.38
2023-01-19T10:37:40.185Z,48.42
2023-01-19T10:41:05.260Z,63.70
2023-01-19T10:44:11.701Z,64.47
2023-01-19T10:47:21.154Z,86.88
2023-01-19T10:50:29.170Z,55.40
2023-01-19T10:53:33.633Z,58.63
2023-01-19T10:56:39.606Z,54.08
2023-01-19T10:59:46.461Z,60.78
2023-01-19T11:02:53.907Z,46.22
2023-01-19T11:06:21.817Z,41.63
2023-01-19T11:09:26.361Z,38.35
2023-01-19T11:12:31.731Z,45.55
2023-01-19T11:15:49.873Z,48.67
2023-01-19T11:18:57.981Z,58.83
2023-01-19T11:22:34.868Z,61.65
2023-01-19T11:25:39.590Z,49.53
2023-01-19T11:28:52.224Z,78.50
2023-01-19T11:32:09.996Z,107.10
2023-01-19T11:35:42.460Z,141.07
2023-01-19T11:38:51.171Z,171.65
2023-01-19T11:42:07.325Z,190.57
2023-01-19T11:45:29.335Z,213.77
2023-01-19T11:48:49.577Z,126.68
2023-01-19T11:52:03.952Z,147.52
2023-01-19T11:55:26.207Z,148.20
2023-01-19T11:58:32.312Z,135.93
2023-01-19T12:01:42.198Z,141.85
2023-01-19T12:04:48.759Z,146.82
2023-01-19T12:07:55.049Z,152.38
2023-01-19T12:11:03.446Z,151.30
2023-01-19T12:14:17.711Z,111.07
2023-01-19T12:17:31.538Z,124.03
2023-01-19T12:20:45.740Z,127.47
2023-01-19T12:24:04.556Z,106.95
2023-01-19T12:27:40.376Z,101.13
2023-01-19T12:30:47.015Z,101.25
2023-01-19T12:33:52.064Z,104.80
2023-01-19T12:40:21.563Z,104.67
2023-01-19T12:43:26.526Z,84.68
2023-01-19T12:46:33.764Z,78.47
2023-01-19T12:49:52.024Z,66.35
2023-01-19T12:53:01.043Z,57.58
2023-01-19T12:56:10.880Z,101.65
2023-01-19T12:59:29.885Z,41.13
2023-01-19T13:02:47.127Z,24.70
2023-01-19T13:05:59.495Z,16.40
2023-01-19T13:09:03.795Z,18.90
2023-01-19T13:12:15.323Z,18.97
2023-01-19T13:15:37.740Z,40.85
2023-01-19T13:18:42.719Z,30.58
2023-01-19T13:21:50.165Z,35.25
2023-01-19T13:25:11.612Z,36.35
2023-01-19T13:28:19.763Z,34.30
2023-01-19T13:31:26.487Z,45.97
2023-01-19T13:34:43.694Z,32.20
2023-01-19T13:37:48.714Z,22.65
2023-01-19T13:40:55.975Z,22.35
2023-01-19T13:44:05.073Z,26.92
2023-01-19T13:47:20.218Z,26.25
2023-01-19T13:50:27.764Z,32.50
2023-01-19T13:53:32.208Z,26.67
2023-01-19T13:56:38.598Z,25.92
2023-01-19T13:59:42.831Z,25.50
2023-01-19T14:02:57.899Z,26.85
2023-01-19T14:06:02.157Z,34.75
2023-01-19T14:09:20.645Z,33.90
2023-01-19T14:12:26.446Z,30.85
2023-01-19T14:15:34.924Z,32.78
2023-01-19T14:18:38.967Z,35.85
2023-01-19T14:21:43.573Z,41.43
2023-01-19T14:24:47.450Z,46.17
2023-01-19T14:27:51.864Z,72.20
2023-01-19T14:30:59.880Z,48.10
2023-01-19T14:34:04.557Z,38.15
2023-01-19T14:37:23.272Z,43.70
2023-01-19T14:40:27.940Z,33.33
2023-01-19T14:43:31.795Z,36.40
2023-01-19T14:46:36.848Z,33.03
2023-01-19T14:49:47.537Z,38.83
2023-01-19T14:53:01.774Z,42.67
2023-01-19T14:56:08.165Z,44.22
2023-01-19T14:59:12.843Z,39.65
2023-01-19T15:02:21.878Z,42.38
2023-01-19T15:05:29.514Z,48.60
2023-01-19T15:08:38.223Z,52.30
2023-01-19T15:11:43.157Z,68.07
2023-01-19T15:14:50.186Z,81.00
2023-01-19T15:17:56.396Z,64.65
2023-01-19T15:21:03.546Z,77.95
2023-01-19T15:24:07.902Z,53.75
2023-01-19T15:27:14.642Z,48.33
2023-01-19T15:30:25.579Z,38.47
2023-01-19T15:33:31.414Z,36.35
2023-01-19T15:36:35.891Z,35.85
2023-01-19T15:39:40.544Z,58.60
2023-01-19T15:42:44.995Z,66.25
2023-01-19T15:46:00.234Z,59.88
2023-01-19T15:49:07.037Z,60.35
2023-01-19T15:52:10.739Z,54.97
2023-01-19T15:55:16.800Z,41.80
2023-01-19T15:58:21.401Z,39.28
2023-01-19T16:01:35.501Z,35.35
2023-01-19T16:04:39.404Z,32.50
2023-01-19T16:07:43.915Z,24.97
2023-01-19T16:10:47.842Z,20.63
2023-01-19T16:13:52.445Z,19.73
2023-01-19T16:17:00.655Z,23.33
2023-01-19T16:20:06.634Z,20.08
2023-01-19T16:23:14.941Z,14.52
2023-01-19T16:26:27.107Z,14.85
2023-01-19T16:29:31.890Z,12.77
2023-01-19T16:35:41.156Z,13.13
2023-01-19T16:38:45.499Z,20.45
2023-01-19T16:41:49.317Z,21.80
2023-01-19T16:44:53.940Z,18.00
2023-01-19T16:47:57.979Z,27.65
2023-01-19T16:51:09.421Z,16.98
2023-01-19T16:54:18.904Z,14.18
2023-01-19T16:57:26.091Z,20.13
2023-01-19T17:00:29.949Z,16.90
2023-01-19T17:03:34.264Z,16.73
2023-01-19T17:06:38.578Z,17.58
2023-01-19T17:09:43.246Z,14.05
2023-01-19T17:12:47.114Z,8.07
2023-01-19T17:15:52.090Z,7.20
2023-01-19T17:18:59.107Z,8.43
2023-01-19T17:22:03.472Z,9.70
2023-01-19T17:25:07.781Z,10.57
2023-01-19T17:28:12.583Z,9.05
2023-01-19T17:31:20.054Z,7.13
2023-01-19T17:34:24.509Z,6.75
2023-01-19T17:37:28.671Z,6.45
2023-01-19T17:40:33.039Z,6.10
2023-01-19T17:43:36.836Z,5.95
2023-01-19T17:46:44.312Z,6.10
2023-01-19T17:49:48.306Z,6.72
2023-01-19T17:52:55.969Z,7.30
2023-01-19T17:56:13.996Z,7.82
2023-01-19T17:59:18.457Z,7.93
2023-01-19T18:02:25.085Z,8.20
2023-01-19T18:05:29.499Z,7.28
2023-01-19T18:08:34.679Z,9.45
2023-01-19T18:11:40.841Z,7.85
2023-01-19T18:14:44.612Z,8.30
2023-01-19T18:17:48.989Z,9.38
2023-01-19T18:20:52.955Z,6.93
2023-01-19T18:24:06.010Z,6.68
2023-01-19T18:27:09.848Z,8.32
2023-01-19T18:30:15.174Z,16.13
2023-01-19T18:33:18.960Z,13.55
2023-01-19T18:36:23.340Z,12.73
2023-01-19T18:39:27.374Z,18.45
2023-01-19T18:42:31.837Z,33.65
2023-01-19T18:45:37.694Z,24.65
2023-01-19T18:48:42.362Z,33.47
2023-01-19T18:51:46.151Z,33.07
2023-01-19T18:54:50.635Z,17.90
2023-01-19T18:57:54.620Z,12.30
2023-01-19T19:54:00.097Z,7.90
2023-01-19T19:57:05.039Z,8.27
2023-01-19T20:00:10.387Z,8.20
2023-01-19T20:03:14.904Z,7.50
2023-01-19T20:06:22.765Z,8.15
2023-01-19T20:09:27.024Z,6.50
2023-01-19T20:12:30.949Z,7.35
2023-01-19T20:15:39.286Z,7.35
2023-01-19T20:18:49.316Z,8.63
2023-01-19T20:21:53.526Z,7.45
2023-01-19T20:24:57.557Z,7.18
2023-01-19T20:28:04.139Z,7.90
2023-01-19T20:31:13.393Z,7.57
2023-01-19T20:34:19.846Z,6.05
2023-01-19T20:37:24.136Z,7.00
2023-01-19T20:40:28.484Z,7.55
2023-01-19T20:43:32.633Z,8.00
2023-01-19T20:46:37.154Z,7.38
2023-01-19T20:49:41.275Z,7.50
2023-01-19T20:52:45.548Z,7.55
2023-01-19T20:55:49.943Z,7.88
2023-01-19T20:58:54.511Z,9.05
2023-01-19T21:01:58.881Z,9.73
2023-01-19T21:05:03.124Z,10.77
2023-01-19T21:08:09.858Z,10.32
2023-01-19T21:11:14.082Z,10.30
2023-01-19T21:14:18.130Z,10.77
2023-01-19T21:17:22.303Z,12.93
2023-01-19T21:20:26.439Z,12.70
2023-01-19T21:23:31.115Z,69.53
2023-01-19T21:26:35.290Z,14.98
2023-01-19T21:29:41.508Z,12.85
2023-01-19T21:32:46.017Z,10.77
2023-01-19T21:35:57.115Z,12.80
2023-01-19T21:39:01.870Z,12.48
2023-01-19T21:42:05.931Z,13.00
2023-01-19T21:45:12.828Z,13.15
2023-01-19T21:48:17.989Z,13.40
2023-01-19T21:51:22.534Z,21.75
2023-01-19T21:54:27.344Z,17.73
2023-01-19T21:57:32.143Z,18.20
2023-01-19T22:00:36.209Z,17.15
2023-01-19T22:03:41.803Z,19.93
2023-01-19T22:06:45.826Z,13.40
2023-01-19T22:09:50.739Z,13.50
2023-01-19T22:12:54.728Z,13.43
2023-01-19T22:16:11.818Z,12.18
2023-01-19T22:19:16.141Z,11.30
2023-01-19T22:22:20.933Z,10.18
2023-01-19T22:25:28.648Z,10.38
2023-01-19T22:28:34.390Z,10.85
2023-01-19T22:32:03.708Z,10.98
2023-01-19T22:35:08.130Z,27.75
2023-01-19T22:38:11.931Z,10.53
2023-01-19T22:41:41.719Z,12.82
2023-01-19T22:44:46.564Z,13.48
2023-01-19T22:50:58.506Z,11.55
2023-01-19T22:54:03.033Z,11.85
2023-01-19T22:57:07.711Z,13.63
2023-01-19T23:00:13.376Z,12.13
2023-01-19T23:03:17.542Z,12.63
2023-01-19T23:06:24.928Z,12.00
2023-01-19T23:09:28.801Z,18.90
2023-01-19T23:12:33.195Z,21.10
2023-01-19T23:15:37.077Z,20.38
2023-01-19T23:18:42.409Z,34.30
2023-01-19T23:21:46.657Z,12.40
2023-01-19T23:24:51.077Z,12.55
2023-01-19T23:27:54.861Z,8.60
2023-01-19T23:30:59.254Z,11.05
2023-01-19T23:34:08.573Z,15.70
2023-01-19T23:37:12.980Z,13.05
2023-01-19T23:40:16.967Z,18.63
2023-01-19T23:43:21.318Z,14.13
2023-01-19T23:46:25.160Z,16.45
2023-01-19T23:49:29.623Z,21.57
2023-01-19T23:52:33.487Z,28.05
2023-01-19T23:55:37.870Z,37.10
2023-01-19T23:58:41.791Z,14.57
